KHFD/HFD METAR and TAF weather

Enter ICAO airport designator
Station Type Date Time Source
KHFD METAR 2019/02/18 04:29 UTC NOAA

KHFD 180429Z 13003KT 7SM -SN BKN042 OVC060 M02/M03 A3001 RMK AO2 P0004 T10171033


Station Type Date Time Source
KHFD Decoded METAR 2019/02/18 04:29 UTC NOAA

HARTFORD-BRAINARD AIRPORT, CT, United States (KHFD) 41-44N 072-39W 4M
Feb 17, 2019 - 11:29 PM EST / 2019.02.18 0429 UTC
Wind: from the SE (130 degrees) at 3 MPH (3 KT):0
Visibility: 7 mile(s):0
Sky conditions: overcast
Weather: light snow
Precipitation last hour: 0.04 inches
Temperature: 28.9 F (-1.7 C)
Dew Point: 26.1 F (-3.3 C)
Relative Humidity: 88%
Pressure (altimeter): 30.01 in. Hg (1016 hPa)
ob: KHFD 180429Z 13003KT 7SM -SN BKN042 OVC060 M02/M03 A3001 RMK AO2 P0004 T10171033
cycle: 4

Station Type Date Time Source
KHFD TAF UTC NOAA

Error!


Example: see airport list